createdAt,value
2022-09-24T00:04:33.363Z,100786.78
2022-09-24T00:09:34.858Z,100779.69
2022-09-24T00:14:36.335Z,100780.50
2022-09-24T00:19:37.897Z,100785.47
2022-09-24T00:24:57.847Z,100778.03
2022-09-24T00:29:59.343Z,100778.84
2022-09-24T00:35:00.834Z,100780.47
2022-09-24T00:40:02.421Z,100774.09
2022-09-24T00:45:04.611Z,100762.03
2022-09-24T00:50:27.166Z,100759.31
2022-09-24T00:55:28.649Z,100759.91
2022-09-24T01:00:31.021Z,100757.47
2022-09-24T01:05:32.619Z,100747.44
2022-09-24T01:11:03.098Z,100749.75
2022-09-24T01:16:09.566Z,100741.81
2022-09-24T01:21:20.002Z,100746.78
2022-09-24T01:26:48.496Z,100737.25
2022-09-24T01:32:06.442Z,100741.25
2022-09-24T01:37:08.190Z,100733.78
2022-09-24T01:42:10.954Z,100733.28
2022-09-24T01:47:20.206Z,100737.28
2022-09-24T01:52:25.226Z,100726.75
2022-09-24T01:57:35.942Z,100732.84
2022-09-24T02:02:38.925Z,100721.53
2022-09-24T02:07:45.171Z,100718.94
2022-09-24T02:12:49.607Z,100715.38
2022-09-24T02:17:54.574Z,100713.31
2022-09-24T02:22:56.349Z,100711.59
2022-09-24T02:27:57.860Z,100704.03
2022-09-24T02:32:59.393Z,100700.09
2022-09-24T02:38:06.049Z,100704.63
2022-09-24T02:43:07.738Z,100702.34
2022-09-24T02:48:09.207Z,100698.41
2022-09-24T02:53:10.692Z,100694.09
2022-09-24T02:58:12.319Z,100694.84
2022-09-24T03:03:13.839Z,100686.00
2022-09-24T03:08:15.478Z,100692.44
2022-09-24T03:13:20.680Z,100691.25
2022-09-24T03:18:22.162Z,100687.22
2022-09-24T03:23:23.827Z,100691.06
2022-09-24T03:28:25.306Z,100688.25
2022-09-24T03:33:28.232Z,100687.66
2022-09-24T03:38:29.911Z,100681.28
2022-09-24T03:43:31.805Z,100674.69
2022-09-24T03:48:34.169Z,100676.28
2022-09-24T03:53:35.561Z,100672.03
2022-09-24T03:58:37.911Z,100666.81
2022-09-24T04:03:40.066Z,100665.31
2022-09-24T04:08:41.543Z,100668.50
2022-09-24T04:13:43.018Z,100670.41
2022-09-24T04:18:44.496Z,100666.81
2022-09-24T04:23:45.972Z,100666.81
2022-09-24T04:28:47.448Z,100676.72
2022-09-24T04:33:48.931Z,100666.63
2022-09-24T04:38:50.981Z,100671.28
2022-09-24T04:43:52.446Z,100667.16
2022-09-24T04:48:54.305Z,100663.69
2022-09-24T04:53:55.826Z,100670.41
2022-09-24T04:58:58.126Z,100669.16
2022-09-24T05:03:59.647Z,100671.69
2022-09-24T05:09:01.187Z,100666.66
2022-09-24T05:24:33.291Z,100677.97
2022-09-24T05:29:34.812Z,100677.78
2022-09-24T05:34:36.302Z,100682.81
2022-09-24T05:39:37.867Z,100688.06
2022-09-24T05:44:39.701Z,100683.31
2022-09-24T05:49:41.823Z,100688.28
2022-09-24T05:54:43.291Z,100696.25
2022-09-24T05:59:44.779Z,100705.50
2022-09-24T06:04:46.255Z,100704.31
2022-09-24T06:09:47.995Z,100702.75
2022-09-24T06:14:49.467Z,100704.66
2022-09-24T06:19:50.941Z,100708.03
2022-09-24T06:24:52.410Z,100716.72
2022-09-24T06:29:53.890Z,100711.72
2022-09-24T06:34:58.967Z,100715.59
2022-09-24T06:40:00.945Z,100722.50
2022-09-24T06:45:02.420Z,100714.00
2022-09-24T06:50:04.238Z,100728.28
2022-09-24T06:55:06.097Z,100739.22
2022-09-24T07:00:08.271Z,100730.09
2022-09-24T07:05:09.748Z,100726.56
2022-09-24T07:10:11.291Z,100722.78
2022-09-24T07:15:13.044Z,100725.28
2022-09-24T07:20:14.530Z,100737.91
2022-09-24T07:25:16.047Z,100739.28
2022-09-24T07:30:17.558Z,100740.13
2022-09-24T07:35:21.033Z,100737.28
2022-09-24T07:40:23.581Z,100736.75
2022-09-24T07:45:28.028Z,100741.06
2022-09-24T07:50:30.758Z,100755.00
2022-09-24T07:55:32.764Z,100749.94
2022-09-24T08:00:34.409Z,100748.00
2022-09-24T08:05:35.951Z,100751.09
2022-09-24T08:10:38.167Z,100759.25
2022-09-24T08:15:39.606Z,100765.59
2022-09-24T08:20:41.151Z,100765.06
2022-09-24T08:25:42.626Z,100770.56
2022-09-24T08:30:44.270Z,100772.00
2022-09-24T08:35:45.754Z,100777.38
2022-09-24T08:41:03.883Z,100779.22
2022-09-24T08:46:36.043Z,100788.06
2022-09-24T08:51:45.697Z,100782.69
2022-09-24T08:56:47.349Z,100792.34
2022-09-24T09:01:51.625Z,100794.72
2022-09-24T09:06:59.227Z,100790.47
2022-09-24T09:12:04.388Z,100809.53
2022-09-24T09:17:09.595Z,100821.06
2022-09-24T09:22:15.022Z,100819.28
2022-09-24T09:27:17.106Z,100817.97
2022-09-24T09:32:55.279Z,100828.78
2022-09-24T09:38:23.260Z,100831.19
2022-09-24T09:43:25.478Z,100822.66
2022-09-24T09:48:29.275Z,100825.88
2022-09-24T09:53:31.520Z,100833.63
2022-09-24T09:58:34.558Z,100834.16
2022-09-24T10:03:46.614Z,100833.00
2022-09-24T10:08:48.094Z,100840.38
2022-09-24T10:14:02.701Z,100841.66
2022-09-24T10:19:04.226Z,100839.16
2022-09-24T10:24:09.098Z,100835.66
2022-09-24T10:29:50.006Z,100847.28
2022-09-24T10:34:57.495Z,100842.28
2022-09-24T10:40:03.933Z,100843.78
2022-09-24T10:45:09.447Z,100852.72
2022-09-24T10:50:28.502Z,100853.19
2022-09-24T10:55:46.136Z,100869.13
2022-09-24T11:00:59.452Z,100869.84
2022-09-24T11:06:01.782Z,100871.03
2022-09-24T11:11:22.004Z,100873.75
2022-09-24T11:16:32.637Z,100856.03
2022-09-24T11:21:49.507Z,100855.72
2022-09-24T11:27:28.538Z,100863.53
2022-09-24T11:33:07.420Z,100859.56
2022-09-24T11:38:23.755Z,100872.97
2022-09-24T11:43:41.513Z,100865.34
2022-09-24T11:49:06.175Z,100878.16
2022-09-24T11:54:24.688Z,100869.47
2022-09-24T11:59:28.839Z,100868.69
2022-09-24T12:04:42.088Z,100874.97
2022-09-24T12:09:48.239Z,100868.19
2022-09-24T12:15:01.625Z,100871.03
2022-09-24T12:20:16.256Z,100867.88
2022-09-24T12:25:17.756Z,100861.97
2022-09-24T12:30:52.490Z,100869.09
2022-09-24T12:35:56.706Z,100865.44
2022-09-24T12:41:20.059Z,100870.28
2022-09-24T12:46:23.348Z,100877.94
2022-09-24T12:51:24.920Z,100866.66
2022-09-24T12:56:27.766Z,100881.16
2022-09-24T13:01:32.532Z,100874.84
2022-09-24T13:06:36.037Z,100877.44
2022-09-24T13:11:37.915Z,100874.44
2022-09-24T13:16:40.188Z,100875.66
2022-09-24T13:21:41.656Z,100866.00
2022-09-24T13:26:43.132Z,100873.25
2022-09-24T13:31:47.791Z,100870.69
2022-09-24T13:36:52.817Z,100868.16
2022-09-24T13:42:04.544Z,100877.84
2022-09-24T13:47:30.433Z,100886.03
2022-09-24T13:52:33.847Z,100888.00
2022-09-24T13:57:43.280Z,100889.81
2022-09-24T14:03:05.657Z,100886.38
2022-09-24T14:08:08.774Z,100890.19
2022-09-24T14:13:23.946Z,100896.06
2022-09-24T14:18:28.721Z,100896.72
2022-09-24T14:23:46.160Z,100886.75
2022-09-24T14:28:47.619Z,100891.59
2022-09-24T14:33:49.193Z,100897.53
2022-09-24T14:38:58.087Z,100884.94
2022-09-24T14:44:02.149Z,100886.66
2022-09-24T14:49:27.484Z,100888.47
2022-09-24T14:54:37.207Z,100891.34
2022-09-24T14:59:39.280Z,100901.63
2022-09-24T15:04:40.800Z,100890.06
2022-09-24T15:09:42.313Z,100893.91
2022-09-24T15:15:16.871Z,100890.06
2022-09-24T15:20:18.414Z,100900.53
2022-09-24T15:25:19.893Z,100892.13
2022-09-24T15:30:21.683Z,100892.81
2022-09-24T15:35:24.028Z,100888.84
2022-09-24T15:40:26.460Z,100892.91
2022-09-24T15:45:27.986Z,100883.69
2022-09-24T15:50:29.469Z,100886.31
2022-09-24T15:55:31.316Z,100888.91
2022-09-24T16:00:33.249Z,100890.56
2022-09-24T16:05:34.787Z,100896.56
2022-09-24T16:10:36.347Z,100900.41
2022-09-24T16:15:38.141Z,100904.16
2022-09-24T16:20:39.969Z,100909.19
2022-09-24T16:26:01.723Z,100913.38
2022-09-24T16:31:07.293Z,100909.19
2022-09-24T16:36:09.052Z,100912.81
2022-09-24T16:41:10.806Z,100907.13
2022-09-24T16:46:16.375Z,100919.69
2022-09-24T16:51:21.038Z,100928.69
2022-09-24T16:56:23.293Z,100926.53
2022-09-24T17:01:24.888Z,100928.00
2022-09-24T17:06:28.162Z,100926.88
2022-09-24T17:11:29.657Z,100930.94
2022-09-24T17:16:31.213Z,100938.50
2022-09-24T17:21:32.760Z,100934.72
2022-09-24T17:26:34.659Z,100936.72
2022-09-24T17:31:36.178Z,100939.34
2022-09-24T17:36:37.761Z,100941.38
2022-09-24T17:41:39.238Z,100947.63
2022-09-24T17:46:40.803Z,100950.28
2022-09-24T17:51:42.339Z,100957.06
2022-09-24T17:56:43.813Z,100950.97
2022-09-24T18:01:45.664Z,100951.44
2022-09-24T18:06:47.666Z,100950.41
2022-09-24T18:11:50.206Z,100956.09
2022-09-24T18:16:52.051Z,100959.47
2022-09-24T18:21:54.602Z,100960.88
2022-09-24T18:26:56.411Z,100972.63
2022-09-24T18:31:57.906Z,100964.97
2022-09-24T18:36:59.401Z,100975.22
2022-09-24T18:42:00.881Z,100969.41
2022-09-24T18:47:02.443Z,100978.69
2022-09-24T18:52:03.919Z,100979.38
2022-09-24T18:57:05.386Z,100986.53
2022-09-24T19:02:07.044Z,100981.41
2022-09-24T19:07:08.688Z,100982.06
2022-09-24T19:12:10.278Z,100984.50
2022-09-24T19:17:11.859Z,100993.97
2022-09-24T19:22:13.389Z,100991.78
2022-09-24T19:27:14.889Z,100987.31
2022-09-24T19:32:16.385Z,100986.13
2022-09-24T19:37:17.860Z,100975.78
2022-09-24T19:42:19.342Z,100990.91
2022-09-24T19:47:20.829Z,100989.97
2022-09-24T19:52:22.328Z,100990.25
2022-09-24T19:57:23.844Z,100979.75
2022-09-24T20:02:25.374Z,100984.53
2022-09-24T20:07:27.544Z,100985.19
2022-09-24T20:12:29.521Z,100989.19
2022-09-24T20:17:31.070Z,100975.88
2022-09-24T20:22:33.381Z,100982.13
2022-09-24T20:27:53.221Z,100990.13
2022-09-24T20:32:54.725Z,100988.09
2022-09-24T20:37:56.269Z,100986.34
2022-09-24T20:42:58.097Z,100986.09
2022-09-24T20:47:59.875Z,100988.94
2022-09-24T20:53:01.401Z,100996.94
2022-09-24T20:58:02.876Z,100984.72
2022-09-24T21:03:19.900Z,100986.53
2022-09-24T21:08:25.865Z,100982.59
2022-09-24T21:13:27.375Z,100978.06
2022-09-24T21:18:40.687Z,100980.31
2022-09-24T21:23:46.087Z,100982.16
2022-09-24T21:28:49.774Z,100985.28
2022-09-24T21:33:55.069Z,100987.03
2022-09-24T21:39:01.294Z,100995.03
2022-09-24T21:44:03.284Z,100995.06
2022-09-24T21:49:04.862Z,100987.13
2022-09-24T21:54:07.128Z,100996.31
2022-09-24T21:59:27.562Z,100993.16
2022-09-24T22:04:31.825Z,100989.50
2022-09-24T22:09:33.324Z,100992.19
2022-09-24T22:14:34.947Z,100988.09
2022-09-24T22:19:36.738Z,100984.25
2022-09-24T22:24:38.219Z,100981.06
2022-09-24T22:29:39.874Z,100974.41
2022-09-24T22:34:59.718Z,100985.50
2022-09-24T22:40:02.190Z,100978.91
2022-09-24T22:45:04.346Z,100974.38
2022-09-24T22:50:06.226Z,100967.84
2022-09-24T22:55:08.116Z,100971.53
2022-09-24T23:00:10.136Z,100964.84
2022-09-24T23:05:11.629Z,100963.19
2022-09-24T23:10:13.652Z,100973.13
2022-09-24T23:15:15.197Z,100971.19
2022-09-24T23:20:16.841Z,100975.00
2022-09-24T23:25:18.314Z,100974.50
2022-09-24T23:30:21.974Z,100966.56
2022-09-24T23:35:23.562Z,100965.59
2022-09-24T23:40:26.465Z,100970.75
2022-09-24T23:45:28.721Z,100977.88
2022-09-24T23:50:30.190Z,100975.25
2022-09-24T23:55:32.170Z,100973.19
